METAR Reports From Nearby Airports

 

KLUD - Decatur, Texas, USA
Distance from Wildwood: ESE 5mi, 8km
Dati ricevuti: Aug 09, 2022 12:00am
Sereno
Sereno
 Vento da SSE
Vento: SSE 6 mph , 9 km/h
Temperatura: 90°F , 32°C
P.to Rugiada: 61°F , 16°C
Umidità: 38%
Barometro: 30.02 inHg , 1016.6 hPa
Clouds: Sereno
Visibility: 7 miles , 11 km
2022/08/09 05:00 KLUD 090500Z AUTO 16005KT 7SM CLR 32/16 A3002 RMK AO2 T03150158
KXBP - Bridgeport, Texas, USA
Distance from Wildwood: OSO 11mi, 18km
Dati ricevuti: Aug 08, 2022 11:55pm
Mostly Cloudy
Mostly Cloudy
 Vento da S
Vento: S 7 mph , 11 km/h
Temperatura: 88°F , 31°C
P.to Rugiada: 59°F , 15°C
Umidità: 38%
Barometro: 30.02 inHg , 1016.6 hPa
Clouds: Mostly Cloudy
Visibility: 10 miles , 16 km
Cloud details: Mostly Cloudy 12000 ft
2022/08/09 04:55 KXBP 090455Z AUTO 17006KT 10SM BKN120 31/15 A3002 RMK AO2 LTG DSNT N T03140150
 
K0F2 - Bowie, Texas, USA
Distance from Wildwood: NNO 24mi, 39km
Dati ricevuti: Aug 08, 2022 11:55pm
Sereno
Sereno
 Vento da SE
Vento: SE 5 mph , 7 km/h
Temperatura: 84°F , 29°C
Indice di Calore: 85°F , 29°C
P.to Rugiada: 64°F , 18°C
Umidità: 51%
Barometro: 30.02 inHg , 1016.6 hPa
Clouds: Sereno
Visibility: 10 miles , 16 km
2022/08/09 04:55 K0F2 090455Z AUTO 14004KT 10SM CLR 29/18 A3002 RMK AO2 T02910175
KDTO - Denton, Texas, USA
Distance from Wildwood: E 27mi, 44km
Dati ricevuti: Aug 08, 2022 11:53pm
Sereno
Sereno
 Vento da SSE
Vento: SSE 6 mph , 9 km/h
Temperatura: 90°F , 32°C
Indice di Calore: 92°F , 33°C
P.to Rugiada: 64°F , 18°C
Umidità: 43%
Barometro: 30.00 inHg , 1015.9 hPa
Clouds: Sereno
Visibility: 10 miles , 16 km
2022/08/09 04:53 KDTO 090453Z AUTO 16005KT 10SM CLR 32/18 A3000 RMK AO2 SLP146 T03170178
 
KAFW - Ft Worth/Allianc, Texas, USA
Distance from Wildwood: SE 29mi, 46km
Dati ricevuti: Aug 08, 2022 11:53pm
Partly Cloudy
Partly Cloudy
 Vento da S
Vento: S 12 mph , 19 km/h
Temperatura: 91°F , 33°C
P.to Rugiada: 63°F , 17°C
Umidità: 38%
Barometro: 29.99 inHg , 1015.6 hPa
Clouds: Partly Cloudy
Visibility: 10 miles , 16 km
Cloud details: Partly Cloudy 14000 ft
Partly Cloudy 30000 ft
2022/08/09 04:53 KAFW 090453Z 17010KT 10SM SCT140 SCT300 33/17 A2999 RMK AO2 SLP134 T03280172
KFTW - Fort Worth, Texas, USA
Distance from Wildwood: SSE 34mi, 55km
Dati ricevuti: Aug 08, 2022 11:53pm
Sereno
Sereno
 Vento da SE
Vento: SE 10 mph , 17 km/h
Temperatura: 90°F , 32°C
Indice di Calore: 91°F , 33°C
P.to Rugiada: 63°F , 17°C
Umidità: 41%
Barometro: 29.99 inHg , 1015.6 hPa
Clouds: Sereno
Visibility: 10 miles , 16 km
2022/08/09 04:53 KFTW 090453Z 14009KT 10SM CLR 32/17 A2999 RMK AO2 SLP145 T03220167
 
KNFW - Fort Worth Nas, Texas, USA
Distance from Wildwood: SSE 36mi, 58km
Dati ricevuti: Aug 08, 2022 10:52pm
NOT Current
Partly Cloudy
Partly Cloudy
 Vento da SSE
Vento: SSE 7 mph , 11 km/h
Temperatura: 95°F , 35°C
P.to Rugiada: 64°F , 18°C
Umidità: 36%
Barometro: 30.00 inHg , 1015.9 hPa
Clouds: Partly Cloudy
Visibility: 10 miles , 16 km
Cloud details: Partly Cloudy 25000 ft
2022/08/09 03:52 KNFW 090352Z 15006KT 10SM SCT250 35/18 A3000 RMK SLP141 T03460177
KGLE - Gainesville, Texas, USA
Distance from Wildwood: NE 38mi, 61km
Dati ricevuti: Aug 08, 2022 11:55pm
Mostly Cloudy
Mostly Cloudy
 Vento da SSE
Vento: SSE 5 mph , 7 km/h
Temperatura: 86°F , 30°C
Indice di Calore: 87°F , 31°C
P.to Rugiada: 63°F , 17°C
Umidità: 46%
Barometro: 30.02 inHg , 1016.6 hPa
Clouds: Mostly Cloudy
Visibility: 10 miles , 16 km
Cloud details: Mostly Cloudy 11000 ft
2022/08/09 04:55 KGLE 090455Z AUTO 15004KT 10SM BKN110 30/17 A3002 RMK AO2 T02990171
 
KMWL - Mineral Wells, Texas, USA
Distance from Wildwood: SO 41mi, 65km
Dati ricevuti: Aug 08, 2022 11:53pm
Sereno
Sereno
 Vento da SSE
Vento: SSE 6 mph , 9 km/h
Temperatura: 88°F , 31°C
P.to Rugiada: 59°F , 15°C
Umidità: 38%
Barometro: 30.00 inHg , 1015.9 hPa
Clouds: Sereno
Visibility: 10 miles , 16 km
2022/08/09 04:53 KMWL 090453Z AUTO 16005KT 10SM CLR 31/15 A3000 RMK AO2 SLP141 T03060150
KDFW - Dallas/Ft Worth, Texas, USA
Distance from Wildwood: ESE 45mi, 73km
Dati ricevuti: Aug 08, 2022 11:53pm
Partly Cloudy
Partly Cloudy
 Vento da SSE
Vento: SSE 10 mph , 17 km/h
Temperatura: 91°F , 33°C
P.to Rugiada: 63°F , 17°C
Umidità: 38%
Barometro: 29.98 inHg , 1015.2 hPa
Clouds: Partly Cloudy
Visibility: 10 miles , 16 km
Cloud details: Few Clouds 10000 ft
Partly Cloudy 25000 ft
2022/08/09 04:53 KDFW 090453Z 16009KT 10SM FEW100 SCT250 33/17 A2998 RMK AO2 SLP142 T03330167